Time;durP1;ratioP1;P1;durP2;ratioP2;P2;SDS_P1;SDS_P2;PMS_P1;PMS_P2;Temp;Humidity;BMP_temperature;BMP_pressure;BME280_temperature;BME280_humidity;BME280_pressure;Samples;Min_cycle;Max_cycle;Signal;HPM_P1;HPM_P2
2022/05/23 00:00:59;;;;;;;9.73;2.30;;;;;;;;;;5035380;28;20052;-73
2022/05/23 00:03:26;;;;;;;6.43;2.10;;;;;;;;;;5035818;28;20088;-72
2022/05/23 00:05:52;;;;;;;13.32;2.58;;;;;;;;;;5035342;28;20052;-73
2022/05/23 00:08:19;;;;;;;13.70;2.63;;;;;;;;;;5035135;28;20033;-73
2022/05/23 00:10:44;;;;;;;10.45;2.67;;;;;;;;;;5035068;28;20029;-72
2022/05/23 00:13:11;;;;;;;8.77;2.22;;;;;;;;;;5035034;28;20516;-72
2022/05/23 00:15:38;;;;;;;12.65;2.40;;;;;;;;;;5034945;28;20060;-71
2022/05/23 00:18:04;;;;;;;11.73;2.45;;;;;;;;;;5034742;28;20520;-72
2022/05/23 00:20:30;;;;;;;10.90;2.75;;;;;;;;;;5034656;28;20053;-72
2022/05/23 00:22:56;;;;;;;9.25;2.42;;;;;;;;;;5034931;28;20030;-72
2022/05/23 00:25:22;;;;;;;14.25;2.20;;;;;;;;;;5035663;28;20474;-70
2022/05/23 00:27:48;;;;;;;11.13;2.63;;;;;;;;;;5034962;28;20029;-72
2022/05/23 00:30:16;;;;;;;9.60;2.22;;;;;;;;;;5034987;28;20032;-72
2022/05/23 00:35:27;;;;;;;9.77;2.38;;;;;;;;;;5036779;28;20048;-72
2022/05/23 00:37:55;;;;;;;9.48;2.33;;;;;;;;;;5050546;28;20030;-72
2022/05/23 00:40:24;;;;;;;10.20;2.70;;;;;;;;;;5052600;28;20037;-71
2022/05/23 00:45:35;;;;;;;12.23;2.33;;;;;;;;;;5040331;28;20039;-71
2022/05/23 00:48:01;;;;;;;13.65;2.53;;;;;;;;;;5036720;28;20065;-72
2022/05/23 00:50:28;;;;;;;12.63;2.47;;;;;;;;;;5041060;28;20522;-72
2022/05/23 00:52:55;;;;;;;9.23;2.22;;;;;;;;;;5038818;28;20025;-73
2022/05/23 00:55:24;;;;;;;13.13;2.40;;;;;;;;;;5040039;28;20033;-73
2022/05/23 00:57:52;;;;;;;12.77;2.40;;;;;;;;;;5041854;28;20018;-72
2022/05/23 01:00:18;;;;;;;8.00;2.20;;;;;;;;;;5034791;28;20028;-72
2022/05/23 01:02:48;;;;;;;13.40;2.40;;;;;;;;;;5034223;28;20025;-72
2022/05/23 01:05:14;;;;;;;10.07;2.13;;;;;;;;;;5033815;28;20061;-73
2022/05/23 01:07:40;;;;;;;9.45;2.20;;;;;;;;;;5034191;28;20018;-72
2022/05/23 01:10:09;;;;;;;10.65;2.42;;;;;;;;;;5033725;28;20376;-72
2022/05/23 01:12:35;;;;;;;11.02;2.50;;;;;;;;;;5033619;28;20121;-71
2022/05/23 01:15:03;;;;;;;5.88;2.50;;;;;;;;;;5034343;28;20061;-71
2022/05/23 01:17:29;;;;;;;10.45;2.13;;;;;;;;;;5033599;28;20045;-71
2022/05/23 01:19:56;;;;;;;10.13;2.03;;;;;;;;;;5032643;28;20045;-73
2022/05/23 01:22:46;;;;;;;12.60;2.70;;;;;;;;;;5034249;28;20029;-72
2022/05/23 01:25:15;;;;;;;12.57;2.25;;;;;;;;;;5034057;28;20533;-72
2022/05/23 01:27:41;;;;;;;9.65;2.28;;;;;;;;;;5032577;28;20021;-71
2022/05/23 01:30:07;;;;;;;13.18;2.72;;;;;;;;;;5034552;28;20022;-72
2022/05/23 01:32:33;;;;;;;7.70;2.25;;;;;;;;;;5032904;28;20029;-71
2022/05/23 01:34:59;;;;;;;10.73;2.15;;;;;;;;;;5034182;28;20028;-72
2022/05/23 01:37:25;;;;;;;7.57;2.05;;;;;;;;;;5033157;28;20116;-71
2022/05/23 01:39:51;;;;;;;8.55;2.50;;;;;;;;;;5032821;28;20029;-72
2022/05/23 01:42:17;;;;;;;6.43;2.13;;;;;;;;;;5032316;28;20489;-72
2022/05/23 01:44:43;;;;;;;11.00;2.53;;;;;;;;;;5033891;28;20029;-74
2022/05/23 01:47:11;;;;;;;10.48;2.40;;;;;;;;;;5032583;28;20025;-73
2022/05/23 01:49:37;;;;;;;13.82;2.90;;;;;;;;;;5033380;28;20159;-74
2022/05/23 01:52:03;;;;;;;11.45;2.20;;;;;;;;;;5033099;28;20026;-73
2022/05/23 01:54:29;;;;;;;9.50;2.33;;;;;;;;;;5033297;28;20025;-73
2022/05/23 01:56:55;;;;;;;6.43;2.35;;;;;;;;;;5032594;28;20022;-73
2022/05/23 02:02:06;;;;;;;9.63;2.40;;;;;;;;;;5033176;28;20052;-74
2022/05/23 02:04:31;;;;;;;10.02;2.53;;;;;;;;;;5033068;28;20397;-74
2022/05/23 02:06:57;;;;;;;11.00;2.50;;;;;;;;;;5032280;28;20030;-74
2022/05/23 02:09:27;;;;;;;10.43;2.60;;;;;;;;;;5033287;28;20049;-74
2022/05/23 02:11:53;;;;;;;8.80;2.22;;;;;;;;;;5032968;28;20083;-73
2022/05/23 02:14:20;;;;;;;9.73;2.47;;;;;;;;;;5062301;23;20052;-75
2022/05/23 02:16:45;;;;;;;8.50;2.70;;;;;;;;;;5043742;28;20037;-77
2022/05/23 02:19:11;;;;;;;7.03;2.42;;;;;;;;;;5039935;28;20115;-74
2022/05/23 02:21:37;;;;;;;8.75;2.45;;;;;;;;;;5034640;28;20030;-76
2022/05/23 02:24:03;;;;;;;10.30;2.33;;;;;;;;;;5037739;28;20029;-77
2022/05/23 02:26:30;;;;;;;10.65;2.75;;;;;;;;;;5033643;28;20040;-76
2022/05/23 02:28:56;;;;;;;7.18;2.22;;;;;;;;;;5035140;28;20067;-78
2022/05/23 02:31:22;;;;;;;10.10;2.60;;;;;;;;;;5035245;28;20087;-75
2022/05/23 02:33:48;;;;;;;9.73;2.78;;;;;;;;;;5038753;28;20402;-75
2022/05/23 02:36:14;;;;;;;7.18;2.40;;;;;;;;;;5031507;28;20025;-75
2022/05/23 02:38:40;;;;;;;9.40;2.33;;;;;;;;;;5032082;28;20017;-75
2022/05/23 02:41:06;;;;;;;14.45;2.72;;;;;;;;;;5032098;28;20022;-75
2022/05/23 02:43:32;;;;;;;11.43;2.85;;;;;;;;;;5031823;28;20498;-76
2022/05/23 02:45:58;;;;;;;10.15;2.60;;;;;;;;;;5031904;28;20183;-75
2022/05/23 02:48:24;;;;;;;9.70;2.72;;;;;;;;;;5031902;28;20051;-76
2022/05/23 02:50:50;;;;;;;10.77;2.42;;;;;;;;;;5031826;28;20412;-76
2022/05/23 02:53:16;;;;;;;11.60;2.92;;;;;;;;;;5031879;28;20051;-76
2022/05/23 02:55:42;;;;;;;9.88;2.60;;;;;;;;;;5032787;28;20478;-74
2022/05/23 02:58:08;;;;;;;10.85;3.50;;;;;;;;;;5032320;28;20104;-74
2022/05/23 03:00:35;;;;;;;8.27;2.85;;;;;;;;;;5032578;28;20021;-73
2022/05/23 03:03:04;;;;;;;13.00;2.55;;;;;;;;;;5030932;28;20029;-73
2022/05/23 03:05:31;;;;;;;10.85;2.65;;;;;;;;;;5032045;28;20029;-74
2022/05/23 03:07:57;;;;;;;10.75;3.03;;;;;;;;;;5031775;28;20524;-74
2022/05/23 03:10:23;;;;;;;9.60;2.60;;;;;;;;;;5031660;28;20052;-74
2022/05/23 03:12:49;;;;;;;9.90;2.70;;;;;;;;;;5031400;28;20030;-75
2022/05/23 03:15:15;;;;;;;14.63;2.90;;;;;;;;;;5031533;28;20382;-73
2022/05/23 03:17:41;;;;;;;9.20;2.97;;;;;;;;;;5031708;28;20030;-74
2022/05/23 03:20:08;;;;;;;13.77;3.28;;;;;;;;;;5032305;28;20078;-76
2022/05/23 03:28:03;;;;;;;9.05;2.55;;;;;;;;;;5031552;28;20047;-76
2022/05/23 03:30:30;;;;;;;10.50;2.85;;;;;;;;;;5032274;28;20061;-76
2022/05/23 03:32:57;;;;;;;8.45;2.80;;;;;;;;;;5033221;28;20048;-75
2022/05/23 03:35:23;;;;;;;12.25;2.83;;;;;;;;;;5038036;28;20032;-75
2022/05/23 03:37:49;;;;;;;11.63;2.63;;;;;;;;;;5035242;28;20557;-75
2022/05/23 03:40:15;;;;;;;9.23;2.63;;;;;;;;;;5035282;28;20056;-76
2022/05/23 03:42:41;;;;;;;9.00;2.63;;;;;;;;;;5034974;28;20119;-75
2022/05/23 03:45:08;;;;;;;8.85;2.30;;;;;;;;;;5034997;28;20025;-76
2022/05/23 03:47:34;;;;;;;14.60;4.85;;;;;;;;;;5034819;28;20033;-78
2022/05/23 03:50:00;;;;;;;10.52;3.42;;;;;;;;;;5034853;28;20104;-76
2022/05/23 03:52:25;;;;;;;12.52;3.40;;;;;;;;;;5033341;28;20065;-76
2022/05/23 03:54:52;;;;;;;11.70;4.03;;;;;;;;;;5035198;28;20032;-76
2022/05/23 03:57:18;;;;;;;12.23;3.85;;;;;;;;;;5034764;28;20021;-74
2022/05/23 03:59:45;;;;;;;14.32;4.00;;;;;;;;;;5034645;28;20026;-74
2022/05/23 04:02:11;;;;;;;9.55;3.00;;;;;;;;;;5035023;28;20079;-78
2022/05/23 04:04:37;;;;;;;16.38;3.30;;;;;;;;;;5035121;28;20021;-77
2022/05/23 04:07:05;;;;;;;9.43;2.95;;;;;;;;;;5034713;28;20026;-76
2022/05/23 04:09:31;;;;;;;13.65;3.30;;;;;;;;;;5034808;28;20056;-77
2022/05/23 04:11:57;;;;;;;11.55;2.97;;;;;;;;;;5034841;28;20074;-77
2022/05/23 04:14:25;;;;;;;8.35;2.55;;;;;;;;;;5034990;28;20087;-77
2022/05/23 04:16:52;;;;;;;8.27;2.65;;;;;;;;;;5034540;28;20018;-76
2022/05/23 04:19:18;;;;;;;11.93;2.97;;;;;;;;;;5033108;28;20100;-77
2022/05/23 04:21:44;;;;;;;7.40;2.72;;;;;;;;;;5035154;28;20026;-76
2022/05/23 04:24:11;;;;;;;5.90;2.80;;;;;;;;;;5037327;28;20029;-78
2022/05/23 04:26:37;;;;;;;9.30;2.97;;;;;;;;;;5034474;28;20474;-77
2022/05/23 04:29:04;;;;;;;10.82;3.08;;;;;;;;;;5035548;28;20125;-75
2022/05/23 04:31:30;;;;;;;9.25;3.47;;;;;;;;;;5034824;28;20104;-75
2022/05/23 04:36:40;;;;;;;9.40;3.08;;;;;;;;;;5038351;28;20044;-76
2022/05/23 04:39:07;;;;;;;9.77;3.00;;;;;;;;;;5035351;28;20389;-76
2022/05/23 04:41:33;;;;;;;10.50;2.80;;;;;;;;;;5039975;28;20040;-77
2022/05/23 04:43:59;;;;;;;12.27;3.53;;;;;;;;;;5044735;28;20033;-77
2022/05/23 04:46:26;;;;;;;10.25;3.38;;;;;;;;;;5040957;28;20078;-78
2022/05/23 04:51:37;;;;;;;12.63;3.10;;;;;;;;;;5034839;28;20048;-77
2022/05/23 04:54:03;;;;;;;9.43;3.42;;;;;;;;;;5033752;28;20466;-76
2022/05/23 04:56:29;;;;;;;6.85;3.10;;;;;;;;;;5034346;28;20140;-76
2022/05/23 04:58:55;;;;;;;10.68;3.10;;;;;;;;;;5034337;28;20502;-78
2022/05/23 05:01:21;;;;;;;8.88;2.35;;;;;;;;;;5033357;28;20433;-76
2022/05/23 05:03:48;;;;;;;8.00;2.58;;;;;;;;;;5034402;28;20040;-76
2022/05/23 05:06:14;;;;;;;16.30;2.83;;;;;;;;;;5034595;28;20041;-77
2022/05/23 05:08:40;;;;;;;10.00;2.55;;;;;;;;;;5034347;28;20032;-76
2022/05/23 05:11:06;;;;;;;7.28;2.20;;;;;;;;;;5034927;28;20072;-77
2022/05/23 05:13:33;;;;;;;8.15;2.40;;;;;;;;;;5033376;28;20043;-76
2022/05/23 05:16:03;;;;;;;8.00;2.42;;;;;;;;;;5034453;28;20024;-75
2022/05/23 05:18:30;;;;;;;6.68;2.35;;;;;;;;;;5035235;28;20101;-77
2022/05/23 05:20:56;;;;;;;9.95;2.42;;;;;;;;;;5034446;28;20358;-76
2022/05/23 05:23:23;;;;;;;10.75;2.30;;;;;;;;;;5033468;28;20033;-79
2022/05/23 05:25:52;;;;;;;5.85;2.00;;;;;;;;;;5034735;28;20160;-77
2022/05/23 05:28:18;;;;;;;10.05;2.60;;;;;;;;;;5038986;28;20014;-80
2022/05/23 05:30:48;;;;;;;11.85;3.05;;;;;;;;;;5048713;28;20502;-77
2022/05/23 05:33:16;;;;;;;9.45;2.38;;;;;;;;;;5034439;28;20030;-77
2022/05/23 05:35:55;;;;;;;10.52;2.33;;;;;;;;;;5035534;28;20026;-78
2022/05/23 05:38:24;;;;;;;12.02;2.10;;;;;;;;;;5038946;28;20025;-77
2022/05/23 05:40:56;;;;;;;8.32;2.30;;;;;;;;;;5035214;28;20021;-76
2022/05/23 05:43:26;;;;;;;5.57;1.75;;;;;;;;;;5033610;28;20033;-75
2022/05/23 05:45:58;;;;;;;9.65;2.15;;;;;;;;;;5033792;28;20017;-74
2022/05/23 05:48:24;;;;;;;7.55;2.05;;;;;;;;;;5034796;28;20476;-77
2022/05/23 05:50:50;;;;;;;6.13;1.92;;;;;;;;;;5034663;28;20079;-77
2022/05/23 05:53:25;;;;;;;6.47;1.80;;;;;;;;;;5034725;28;20080;-76
2022/05/23 05:55:51;;;;;;;9.15;2.15;;;;;;;;;;5033201;28;20027;-77
2022/05/23 05:58:17;;;;;;;12.23;2.25;;;;;;;;;;5032293;28;20028;-78
2022/05/23 06:00:43;;;;;;;6.88;2.00;;;;;;;;;;5033691;28;20485;-78
2022/05/23 06:03:09;;;;;;;10.65;3.75;;;;;;;;;;5034147;28;20029;-75
2022/05/23 06:11:23;;;;;;;12.20;4.65;;;;;;;;;;5032905;28;20022;-73
2022/05/23 06:11:25;;;;;;;8.68;1.73;;;;;;;;;;5034925;28;20056;-78
2022/05/23 06:13:52;;;;;;;10.50;2.20;;;;;;;;;;5032675;28;20559;-76
2022/05/23 06:16:18;;;;;;;6.38;1.83;;;;;;;;;;5034413;28;20101;-78
2022/05/23 06:18:45;;;;;;;8.73;2.10;;;;;;;;;;5034889;28;20101;-77
2022/05/23 06:21:12;;;;;;;8.07;1.98;;;;;;;;;;5036684;28;20026;-77
2022/05/23 06:23:38;;;;;;;8.88;1.85;;;;;;;;;;5035508;28;20497;-78
2022/05/23 06:26:04;;;;;;;7.88;2.40;;;;;;;;;;5033052;28;20033;-76
2022/05/23 06:28:30;;;;;;;5.63;1.58;;;;;;;;;;5033859;28;20025;-78
2022/05/23 06:30:57;;;;;;;9.00;2.05;;;;;;;;;;5033831;28;20033;-78
2022/05/23 06:33:24;;;;;;;7.60;1.67;;;;;;;;;;5035606;28;20125;-79
2022/05/23 06:35:50;;;;;;;9.60;1.63;;;;;;;;;;5032500;28;20022;-76
2022/05/23 06:38:16;;;;;;;9.90;2.45;;;;;;;;;;5032242;28;20021;-78
2022/05/23 06:40:42;;;;;;;8.70;2.00;;;;;;;;;;5032275;28;20079;-76
2022/05/23 06:43:08;;;;;;;11.32;2.25;;;;;;;;;;5032987;28;20112;-77
2022/05/23 06:45:35;;;;;;;7.00;2.10;;;;;;;;;;5033912;28;20048;-79
2022/05/23 06:48:00;;;;;;;9.68;2.05;;;;;;;;;;5034432;28;20026;-77
2022/05/23 06:50:27;;;;;;;6.68;1.95;;;;;;;;;;5036261;28;20029;-78
2022/05/23 06:52:53;;;;;;;8.48;1.90;;;;;;;;;;5034847;28;20037;-76
2022/05/23 06:55:19;;;;;;;12.02;1.92;;;;;;;;;;5033427;28;20476;-76
2022/05/23 06:57:44;;;;;;;7.22;1.75;;;;;;;;;;5036680;28;20030;-78
2022/05/23 07:00:11;;;;;;;9.13;1.75;;;;;;;;;;5037133;28;20044;-78
2022/05/23 07:02:38;;;;;;;10.75;1.75;;;;;;;;;;5038475;28;20025;-76
2022/05/23 07:13:19;;;;;;;8.60;1.85;;;;;;;;;;5036975;28;20011;-77
2022/05/23 07:15:48;;;;;;;4.95;1.40;;;;;;;;;;5037940;28;20053;-80
2022/05/23 07:18:15;;;;;;;7.90;2.08;;;;;;;;;;5037585;28;20040;-77
2022/05/23 07:20:42;;;;;;;7.90;2.25;;;;;;;;;;5036693;28;20028;-77
2022/05/23 07:23:09;;;;;;;8.55;2.03;;;;;;;;;;5038310;28;20028;-76
2022/05/23 07:25:35;;;;;;;6.90;1.73;;;;;;;;;;5035830;28;20025;-77
2022/05/23 07:28:01;;;;;;;7.65;1.67;;;;;;;;;;5036557;28;20128;-76
2022/05/23 07:30:28;;;;;;;7.57;1.67;;;;;;;;;;5035694;28;20473;-78
2022/05/23 07:32:54;;;;;;;9.27;1.77;;;;;;;;;;5037226;28;20344;-77
2022/05/23 07:35:20;;;;;;;10.20;1.98;;;;;;;;;;5042724;28;20026;-75
2022/05/23 07:37:46;;;;;;;7.85;1.33;;;;;;;;;;5039850;28;20121;-76
2022/05/23 07:40:13;;;;;;;8.00;1.90;;;;;;;;;;5038187;28;20022;-76
2022/05/23 07:42:39;;;;;;;7.35;1.73;;;;;;;;;;5049623;28;20518;-75
2022/05/23 07:45:06;;;;;;;10.02;1.80;;;;;;;;;;5039250;28;20625;-76
2022/05/23 07:47:32;;;;;;;9.60;1.80;;;;;;;;;;5041991;28;20025;-78
2022/05/23 07:49:59;;;;;;;11.27;1.75;;;;;;;;;;5046737;28;20474;-77
2022/05/23 07:52:25;;;;;;;10.73;1.65;;;;;;;;;;5048335;28;20055;-75
2022/05/23 08:02:52;;;;;;;7.03;2.75;;;;;;;;;;5049687;28;20095;-75
2022/05/23 08:05:19;;;;;;;8.18;1.70;;;;;;;;;;5040220;28;20034;-75
2022/05/23 08:07:45;;;;;;;10.10;1.88;;;;;;;;;;5035492;28;20033;-75
2022/05/23 08:10:12;;;;;;;6.25;1.60;;;;;;;;;;5035989;28;20026;-76
2022/05/23 08:12:38;;;;;;;5.00;1.60;;;;;;;;;;5051328;28;20029;-76
2022/05/23 08:15:04;;;;;;;8.80;1.80;;;;;;;;;;5054294;28;20406;-77
2022/05/23 08:17:31;;;;;;;9.68;1.83;;;;;;;;;;5055326;28;20029;-77
2022/05/23 08:19:57;;;;;;;8.77;1.90;;;;;;;;;;5066316;22;20098;-76
2022/05/23 08:22:23;;;;;;;10.73;2.17;;;;;;;;;;5036010;28;20029;-75
2022/05/23 08:24:49;;;;;;;9.23;1.80;;;;;;;;;;5036597;28;20502;-75
2022/05/23 08:27:16;;;;;;;6.03;1.83;;;;;;;;;;5035419;28;20024;-74
2022/05/23 08:29:42;;;;;;;8.13;1.75;;;;;;;;;;5038919;28;20022;-73
2022/05/23 08:32:10;;;;;;;9.40;1.85;;;;;;;;;;5046273;28;20029;-74
2022/05/23 08:34:36;;;;;;;5.35;1.58;;;;;;;;;;5045676;28;20025;-73
2022/05/23 08:37:02;;;;;;;9.13;1.98;;;;;;;;;;5036115;28;20469;-72
2022/05/23 08:39:28;;;;;;;5.43;1.80;;;;;;;;;;5036226;28;20060;-72
2022/05/23 08:41:54;;;;;;;13.57;2.33;;;;;;;;;;5033807;28;20112;-73
2022/05/23 08:44:28;;;;;;;10.93;2.30;;;;;;;;;;5036260;28;20083;-74
2022/05/23 08:46:54;;;;;;;14.93;2.47;;;;;;;;;;5035604;28;20029;-74
2022/05/23 08:49:49;;;;;;;11.07;2.38;;;;;;;;;;5034493;28;20401;-77
2022/05/23 08:52:19;;;;;;;8.80;2.00;;;;;;;;;;5022342;28;20375;-76
2022/05/23 08:54:49;;;;;;;7.32;2.22;;;;;;;;;;5036336;28;20088;-73
2022/05/23 08:57:22;;;;;;;9.80;2.17;;;;;;;;;;5037050;28;20017;-77
2022/05/23 08:59:52;;;;;;;5.07;2.13;;;;;;;;;;5034410;28;20079;-75
2022/05/23 09:02:38;;;;;;;10.40;2.40;;;;;;;;;;5032682;28;20064;-74
2022/05/23 09:05:12;;;;;;;10.73;2.13;;;;;;;;;;5035682;28;20081;-74
2022/05/23 09:07:44;;;;;;;8.75;1.90;;;;;;;;;;5036608;28;20402;-73
2022/05/23 09:10:12;;;;;;;8.15;2.20;;;;;;;;;;5033954;28;20097;-74
2022/05/23 09:12:38;;;;;;;7.70;2.40;;;;;;;;;;5034955;28;20163;-74
2022/05/23 09:15:04;;;;;;;14.98;2.17;;;;;;;;;;5036728;28;20490;-74
2022/05/23 09:17:34;;;;;;;10.77;2.38;;;;;;;;;;5035174;28;20057;-74
2022/05/23 09:20:05;;;;;;;8.52;2.00;;;;;;;;;;5037285;28;20112;-77
2022/05/23 09:22:47;;;;;;;8.07;2.00;;;;;;;;;;5038346;28;20025;-72
2022/05/23 09:25:16;;;;;;;6.53;1.63;;;;;;;;;;5032817;28;20033;-74
2022/05/23 09:27:45;;;;;;;11.50;3.30;;;;;;;;;;5033054;28;20030;-74
2022/05/23 09:30:16;;;;;;;8.98;2.30;;;;;;;;;;5033031;28;20032;-72
2022/05/23 09:32:53;;;;;;;11.43;2.08;;;;;;;;;;5032462;28;20068;-74
2022/05/23 09:35:24;;;;;;;10.73;2.50;;;;;;;;;;5031250;28;20088;-73
2022/05/23 09:38:08;;;;;;;8.30;1.95;;;;;;;;;;5036065;28;20038;-74
2022/05/23 09:40:37;;;;;;;7.93;2.25;;;;;;;;;;5031685;28;20029;-74
2022/05/23 09:49:05;;;;;;;10.55;2.05;;;;;;;;;;5034156;28;20096;-73
2022/05/23 09:51:32;;;;;;;12.15;2.30;;;;;;;;;;5033154;28;20394;-75
2022/05/23 09:54:00;;;;;;;10.32;3.20;;;;;;;;;;5032904;28;20029;-74
2022/05/23 09:56:38;;;;;;;15.38;2.67;;;;;;;;;;5032877;28;20037;-74
2022/05/23 09:59:10;;;;;;;12.27;2.97;;;;;;;;;;5033114;28;20021;-75
2022/05/23 10:01:36;;;;;;;11.15;2.50;;;;;;;;;;5032800;28;20025;-74
2022/05/23 10:04:13;;;;;;;13.88;2.40;;;;;;;;;;5033665;28;20018;-74
2022/05/23 10:06:48;;;;;;;10.10;2.55;;;;;;;;;;5032502;28;20406;-74
2022/05/23 10:09:23;;;;;;;9.30;2.30;;;;;;;;;;5032629;28;20056;-73
2022/05/23 10:12:16;;;;;;;10.20;2.42;;;;;;;;;;5032906;28;20033;-74
2022/05/23 10:14:44;;;;;;;10.25;2.45;;;;;;;;;;5029751;28;20549;-70
2022/05/23 10:17:10;;;;;;;11.98;3.00;;;;;;;;;;5032324;28;20025;-72
2022/05/23 10:19:37;;;;;;;13.25;2.55;;;;;;;;;;5032254;28;20438;-70
2022/05/23 10:22:06;;;;;;;11.38;2.42;;;;;;;;;;5032141;28;20021;-71
2022/05/23 10:24:33;;;;;;;10.50;2.25;;;;;;;;;;5032291;28;20017;-72
2022/05/23 10:27:17;;;;;;;12.18;2.58;;;;;;;;;;5031993;28;20071;-73
2022/05/23 10:29:53;;;;;;;16.88;2.80;;;;;;;;;;5032192;28;20048;-71
2022/05/23 10:32:41;;;;;;;15.77;2.50;;;;;;;;;;5030690;28;20029;-72
2022/05/23 10:35:16;;;;;;;6.80;2.25;;;;;;;;;;5022671;28;20030;-71
2022/05/23 10:37:44;;;;;;;13.32;2.53;;;;;;;;;;5034533;28;20080;-71
2022/05/23 10:42:55;;;;;;;9.40;2.20;;;;;;;;;;5033277;28;20040;-70
2022/05/23 10:45:36;;;;;;;8.82;2.20;;;;;;;;;;5036039;28;20025;-70
2022/05/23 10:48:21;;;;;;;8.25;2.58;;;;;;;;;;5036777;28;20029;-71
2022/05/23 10:51:00;;;;;;;11.63;2.25;;;;;;;;;;5036880;28;20053;-71
2022/05/23 10:53:45;;;;;;;13.30;4.80;;;;;;;;;;5034479;28;20029;-73
2022/05/23 10:56:11;;;;;;;;;;;;;;;;;;5035517;28;20025;-71
2022/05/23 10:58:37;;;;;;;9.98;2.72;;;;;;;;;;5035188;28;19936;-70
2022/05/23 11:01:12;;;;;;;11.30;3.13;;;;;;;;;;5035350;28;20505;-70
2022/05/23 11:03:47;;;;;;;15.38;2.47;;;;;;;;;;5035886;28;20061;-70
2022/05/23 11:06:25;;;;;;;12.85;2.80;;;;;;;;;;5035388;28;20029;-70
2022/05/23 11:09:10;;;;;;;11.63;2.33;;;;;;;;;;5035846;28;20421;-71
2022/05/23 11:11:53;;;;;;;12.75;2.38;;;;;;;;;;5035394;28;20026;-71
2022/05/23 11:14:26;;;;;;;11.13;2.47;;;;;;;;;;5036411;28;20471;-72
2022/05/23 11:17:04;;;;;;;8.20;2.60;;;;;;;;;;5034760;28;20513;-73
2022/05/23 11:19:40;;;;;;;8.27;2.45;;;;;;;;;;5036521;28;20037;-71
2022/05/23 11:22:10;;;;;;;10.25;2.55;;;;;;;;;;5035659;28;20033;-70
2022/05/23 11:24:48;;;;;;;10.25;2.78;;;;;;;;;;5035735;28;20025;-72
2022/05/23 11:35:53;;;;;;;13.00;2.72;;;;;;;;;;5037418;28;20044;-72
2022/05/23 11:38:19;;;;;;;11.95;3.35;;;;;;;;;;5038208;28;20529;-72
2022/05/23 11:41:12;;;;;;;8.32;2.45;;;;;;;;;;5040533;28;20394;-72
2022/05/23 11:43:38;;;;;;;11.02;2.47;;;;;;;;;;5014880;28;20273;-72
2022/05/23 11:46:06;;;;;;;8.95;3.47;;;;;;;;;;5037174;28;20025;-72
2022/05/23 11:48:35;;;;;;;9.48;2.50;;;;;;;;;;5035701;28;20095;-71
2022/05/23 11:51:13;;;;;;;16.33;2.47;;;;;;;;;;5037507;28;20041;-72
2022/05/23 11:53:59;;;;;;;7.05;2.13;;;;;;;;;;5034503;28;20033;-71
2022/05/23 11:56:37;;;;;;;12.40;2.83;;;;;;;;;;5027878;28;20065;-70
2022/05/23 11:59:04;;;;;;;11.82;2.03;;;;;;;;;;5043571;28;20018;-71
2022/05/23 12:01:30;;;;;;;13.30;5.05;;;;;;;;;;5041497;28;20017;-71
2022/05/23 12:03:58;;;;;;;15.10;3.10;;;;;;;;;;5035122;28;20033;-72
2022/05/23 12:06:24;;;;;;;10.35;2.28;;;;;;;;;;5034169;28;20030;-72
2022/05/23 12:08:59;;;;;;;12.93;2.50;;;;;;;;;;5033827;28;20039;-74
2022/05/23 12:11:39;;;;;;;14.55;2.33;;;;;;;;;;5036088;28;20030;-72
2022/05/23 12:14:16;;;;;;;7.40;2.55;;;;;;;;;;5036719;28;20466;-71
2022/05/23 12:16:58;;;;;;;9.02;2.47;;;;;;;;;;5034704;28;20034;-72
2022/05/23 12:19:33;;;;;;;6.63;2.08;;;;;;;;;;5035651;28;20052;-71
2022/05/23 12:22:19;;;;;;;7.32;2.25;;;;;;;;;;5035603;28;20036;-72
2022/05/23 12:25:03;;;;;;;9.00;2.72;;;;;;;;;;5034969;28;20105;-70
2022/05/23 12:27:29;;;;;;;11.65;2.10;;;;;;;;;;5034608;28;20529;-72
2022/05/23 12:30:13;;;;;;;14.57;4.72;;;;;;;;;;5034101;28;20057;-71
2022/05/23 12:32:40;;;;;;;13.93;2.83;;;;;;;;;;5034858;28;20527;-71
2022/05/23 12:35:07;;;;;;;14.65;2.30;;;;;;;;;;5034151;28;20098;-72
2022/05/23 12:37:34;;;;;;;12.63;3.03;;;;;;;;;;5034212;28;20045;-72
2022/05/23 12:40:19;;;;;;;13.25;2.60;;;;;;;;;;5034164;28;20045;-72
2022/05/23 12:42:45;;;;;;;;;;;;;;;;;;5035519;28;20056;-70
2022/05/23 12:45:11;;;;;;;10.32;2.22;;;;;;;;;;5034319;28;20322;-71
2022/05/23 12:47:37;;;;;;;8.68;2.47;;;;;;;;;;5034730;28;20034;-71
2022/05/23 12:50:05;;;;;;;6.63;1.83;;;;;;;;;;5034728;28;20104;-72
2022/05/23 12:52:49;;;;;;;9.07;2.20;;;;;;;;;;5034169;28;20506;-71
2022/05/23 12:55:24;;;;;;;11.23;2.85;;;;;;;;;;5033847;28;20489;-71
2022/05/23 12:58:06;;;;;;;10.45;2.50;;;;;;;;;;5034411;28;20021;-72
2022/05/23 13:00:36;;;;;;;7.10;2.00;;;;;;;;;;5036912;28;20026;-72
2022/05/23 13:03:07;;;;;;;11.85;2.50;;;;;;;;;;5039005;28;20438;-72
2022/05/23 13:05:36;;;;;;;6.85;3.55;;;;;;;;;;5033992;28;20026;-71
2022/05/23 13:08:08;;;;;;;7.55;2.45;;;;;;;;;;5032378;28;20036;-71
2022/05/23 13:10:36;;;;;;;19.02;2.63;;;;;;;;;;5039343;28;20387;-71
2022/05/23 13:13:08;;;;;;;7.88;2.40;;;;;;;;;;5034037;28;20056;-71
2022/05/23 13:15:35;;;;;;;9.75;2.35;;;;;;;;;;5033545;28;20052;-72
2022/05/23 13:23:32;;;;;;;6.75;2.05;;;;;;;;;;5034403;28;20075;-71
2022/05/23 13:26:05;;;;;;;7.60;2.35;;;;;;;;;;5033348;28;20100;-72
2022/05/23 13:28:31;;;;;;;9.80;2.85;;;;;;;;;;5036122;28;20061;-71
2022/05/23 13:30:57;;;;;;;5.80;2.20;;;;;;;;;;5034964;28;20025;-73
2022/05/23 13:33:30;;;;;;;10.45;2.35;;;;;;;;;;5034321;28;20501;-72
2022/05/23 13:35:58;;;;;;;6.70;2.13;;;;;;;;;;5040856;28;20029;-71
2022/05/23 13:38:25;;;;;;;7.47;2.35;;;;;;;;;;5033107;28;20410;-73
2022/05/23 13:40:55;;;;;;;6.57;1.85;;;;;;;;;;5033997;28;20060;-71
2022/05/23 13:43:22;;;;;;;9.55;2.22;;;;;;;;;;5035287;28;20036;-73
2022/05/23 13:45:56;;;;;;;10.02;2.10;;;;;;;;;;5037328;28;20026;-72
2022/05/23 13:48:25;;;;;;;5.95;1.85;;;;;;;;;;5033399;28;20037;-73
2022/05/23 13:50:54;;;;;;;10.48;2.22;;;;;;;;;;5036056;28;20029;-72
2022/05/23 13:53:22;;;;;;;9.82;2.35;;;;;;;;;;5032537;28;20109;-71
2022/05/23 13:55:49;;;;;;;8.63;2.20;;;;;;;;;;5032127;28;20021;-71
2022/05/23 13:58:25;;;;;;;10.70;3.50;;;;;;;;;;5031263;28;20079;-73
2022/05/23 14:01:03;;;;;;;12.07;2.65;;;;;;;;;;5036900;28;20021;-72
2022/05/23 14:03:35;;;;;;;11.35;2.65;;;;;;;;;;5033409;28;20437;-72
2022/05/23 14:06:05;;;;;;;9.85;2.97;;;;;;;;;;5033361;28;20061;-71
2022/05/23 14:08:37;;;;;;;10.75;2.88;;;;;;;;;;5032655;28;20029;-71
2022/05/23 14:11:05;;;;;;;12.88;2.85;;;;;;;;;;5033078;28;20101;-71
2022/05/23 14:13:32;;;;;;;8.13;2.78;;;;;;;;;;5032315;28;20037;-72
2022/05/23 14:15:58;;;;;;;8.45;2.58;;;;;;;;;;5031522;28;20078;-71
2022/05/23 14:18:26;;;;;;;9.48;2.35;;;;;;;;;;5031164;28;20096;-72
2022/05/23 14:20:52;;;;;;;7.28;2.50;;;;;;;;;;5032120;28;20085;-71
2022/05/23 14:23:18;;;;;;;5.03;1.52;;;;;;;;;;5031666;28;20021;-71
2022/05/23 14:25:43;;;;;;;13.05;2.80;;;;;;;;;;5030926;28;20423;-72
2022/05/23 14:28:09;;;;;;;8.63;2.28;;;;;;;;;;5031259;28;20029;-72
2022/05/23 14:30:37;;;;;;;9.60;2.15;;;;;;;;;;5031233;28;20347;-71
2022/05/23 14:33:07;;;;;;;11.60;2.45;;;;;;;;;;5031250;28;20021;-72
2022/05/23 14:35:38;;;;;;;5.43;2.63;;;;;;;;;;5031429;28;20040;-72
2022/05/23 14:38:05;;;;;;;11.07;3.00;;;;;;;;;;5032290;28;20478;-73
2022/05/23 14:40:41;;;;;;;8.55;2.53;;;;;;;;;;5031227;28;20083;-72
2022/05/23 14:43:11;;;;;;;8.25;2.00;;;;;;;;;;5031962;28;20053;-71
2022/05/23 14:45:51;;;;;;;10.85;2.20;;;;;;;;;;5030987;28;20026;-71
2022/05/23 14:48:22;;;;;;;8.18;2.20;;;;;;;;;;5032515;28;20486;-71
2022/05/23 14:50:53;;;;;;;9.15;2.00;;;;;;;;;;5031809;28;20079;-71
2022/05/23 14:56:25;;;;;;;7.05;2.10;;;;;;;;;;5032015;28;20032;-72
2022/05/23 15:01:39;;;;;;;7.75;2.67;;;;;;;;;;5032568;28;20064;-73
2022/05/23 15:04:06;;;;;;;7.90;2.10;;;;;;;;;;5032039;28;20021;-71
2022/05/23 15:06:31;;;;;;;8.48;1.88;;;;;;;;;;5031670;28;20033;-70
2022/05/23 15:09:01;;;;;;;12.27;2.22;;;;;;;;;;5032531;28;20033;-71
2022/05/23 15:11:29;;;;;;;11.43;2.40;;;;;;;;;;5032298;28;20026;-71
2022/05/23 15:13:55;;;;;;;8.85;2.53;;;;;;;;;;5031724;28;20491;-72
2022/05/23 15:16:24;;;;;;;6.07;2.10;;;;;;;;;;5031673;28;20387;-72
2022/05/23 15:18:50;;;;;;;9.90;2.70;;;;;;;;;;5031227;28;20030;-71
2022/05/23 15:21:16;;;;;;;12.50;2.60;;;;;;;;;;5033260;28;20036;-74
2022/05/23 15:23:42;;;;;;;8.82;2.60;;;;;;;;;;5030905;28;20041;-74
2022/05/23 15:26:08;;;;;;;5.47;2.10;;;;;;;;;;5030257;28;20033;-71
2022/05/23 15:28:34;;;;;;;7.90;2.30;;;;;;;;;;5031792;28;20040;-73
2022/05/23 15:31:00;;;;;;;8.80;2.05;;;;;;;;;;5035874;28;20608;-73
2022/05/23 15:33:27;;;;;;;5.88;2.17;;;;;;;;;;5036088;28;20025;-73
2022/05/23 15:35:53;;;;;;;8.10;1.77;;;;;;;;;;5033966;28;20052;-73
2022/05/23 15:38:19;;;;;;;13.40;2.63;;;;;;;;;;5035898;28;20699;-73
2022/05/23 15:40:46;;;;;;;5.60;2.25;;;;;;;;;;5036438;28;20776;-73
2022/05/23 15:43:12;;;;;;;10.23;1.90;;;;;;;;;;5035329;28;20504;-74
2022/05/23 15:45:41;;;;;;;11.50;1.92;;;;;;;;;;5035035;28;20075;-73
2022/05/23 15:48:08;;;;;;;6.25;1.90;;;;;;;;;;5035159;28;20510;-72
2022/05/23 15:50:34;;;;;;;13.82;2.72;;;;;;;;;;5034985;28;20421;-72
2022/05/23 15:53:00;;;;;;;9.60;2.00;;;;;;;;;;5035325;28;20386;-72
2022/05/23 15:55:28;;;;;;;8.13;2.25;;;;;;;;;;5035272;28;20022;-71